Time;durP1;ratioP1;P1;durP2;ratioP2;P2;SDS_P1;SDS_P2;PMS_P1;PMS_P2;Temp;Humidity;BMP_temperature;BMP_pressure;BME280_temperature;BME280_humidity;BME280_pressure;Samples;Min_cycle;Max_cycle;Signal;HPM_P1;HPM_P2
2023/05/03 00:00:19;;;;;;;5.07;2.10;;;;;;;24.42;29.76;102115.22;4132007;28;20081;-69
2023/05/03 00:02:21;;;;;;;5.45;2.15;;;;;;;24.44;29.28;102118.66;4132200;28;20046;-68
2023/05/03 00:04:23;;;;;;;;;;;;;;;24.43;29.68;102108.88;4132347;28;20062;-66
2023/05/03 00:06:25;;;;;;;4.13;2.20;;;;;;;24.42;29.63;102107.13;4131932;28;19921;-68
2023/05/03 00:08:28;;;;;;;4.90;1.85;;;;;;;24.48;29.72;102101.31;4113876;28;20109;-69
2023/05/03 00:10:30;;;;;;;3.97;2.10;;;;;;;24.50;29.54;102096.69;4131938;28;20084;-68
2023/05/03 00:12:31;;;;;;;4.10;2.00;;;;;;;24.51;29.68;102091.19;4131996;28;20130;-68
2023/05/03 00:14:33;;;;;;;4.15;2.00;;;;;;;24.53;29.66;102091.06;4131826;28;20415;-68
2023/05/03 00:16:35;;;;;;;5.72;2.08;;;;;;;24.51;29.68;102093.00;4131894;28;20073;-68
2023/05/03 00:18:37;;;;;;;4.88;2.20;;;;;;;24.52;29.70;102089.34;4130763;28;20046;-68
2023/05/03 00:20:38;;;;;;;;;;;;;;;24.49;29.63;102092.28;4132154;28;20046;-66
2023/05/03 00:22:40;;;;;;;4.03;1.92;;;;;;;24.47;29.70;102096.91;4131881;28;19929;-68
2023/05/03 00:24:42;;;;;;;5.43;2.20;;;;;;;24.50;29.50;102094.00;4131340;28;20053;-68
2023/05/03 00:26:43;;;;;;;4.30;1.90;;;;;;;24.54;29.53;102106.25;4131712;28;20488;-68
2023/05/03 00:28:45;;;;;;;4.32;1.80;;;;;;;24.54;29.29;102104.41;4113440;28;20047;-67
2023/05/03 00:30:46;;;;;;;;;;;;;;;24.53;29.35;102113.47;4114890;28;20054;-66
2023/05/03 00:32:50;;;;;;;4.63;2.03;;;;;;;24.52;29.58;102109.06;4131532;28;20021;-68
2023/05/03 00:34:56;;;;;;;3.88;2.00;;;;;;;24.58;29.74;102113.09;4131594;28;20381;-68
2023/05/03 00:36:57;;;;;;;3.92;2.13;;;;;;;24.59;29.38;102114.81;4131754;28;20584;-67
2023/05/03 00:38:59;;;;;;;;;;;;;;;24.58;29.39;102115.78;4130435;28;20070;-65
2023/05/03 00:41:02;;;;;;;4.70;2.03;;;;;;;24.58;29.57;102110.41;4131418;28;20013;-66
2023/05/03 00:43:03;;;;;;;4.80;1.83;;;;;;;24.60;29.61;102113.84;4131590;28;20042;-67
2023/05/03 00:45:05;;;;;;;5.13;2.00;;;;;;;24.64;29.50;102112.69;4131169;28;20054;-66
2023/05/03 00:47:08;;;;;;;4.50;2.00;;;;;;;24.66;29.50;102104.53;4131513;28;20435;-66
2023/05/03 00:49:10;;;;;;;5.05;2.00;;;;;;;24.70;29.31;102106.00;4113340;28;20118;-66
2023/05/03 00:51:13;;;;;;;3.53;1.70;;;;;;;24.69;29.07;102102.47;4131472;28;20046;-66
2023/05/03 00:53:15;;;;;;;4.07;1.83;;;;;;;24.66;29.33;102091.91;4131120;28;20459;-66
2023/05/03 00:55:17;;;;;;;4.38;1.80;;;;;;;24.71;29.17;102096.97;4131260;28;20126;-66
2023/05/03 00:57:21;;;;;;;5.60;1.85;;;;;;;24.71;29.37;102088.88;4131157;28;20053;-65
2023/05/03 00:59:23;;;;;;;4.10;1.70;;;;;;;24.71;29.14;102086.19;4113119;28;20137;-65
2023/05/03 01:01:25;;;;;;;3.78;1.70;;;;;;;24.71;29.21;102089.75;4131324;28;20073;-65
2023/05/03 01:03:27;;;;;;;;;;;;;;;24.70;28.88;102089.84;4131707;28;20490;-65
2023/05/03 01:05:35;;;;;;;3.63;1.73;;;;;;;24.69;29.36;102089.00;4131257;28;20298;-68
2023/05/03 01:07:52;;;;;;;5.70;2.20;;;;;;;24.72;29.02;102085.22;4113673;28;20430;-68
2023/05/03 01:10:03;;;;;;;4.50;1.90;;;;;;;24.74;29.23;102079.72;4131040;28;20443;-69
2023/05/03 01:12:11;;;;;;;4.00;1.90;;;;;;;24.73;29.22;102078.88;4131345;28;20117;-67
2023/05/03 01:14:35;;;;;;;4.10;1.90;;;;;;;24.76;29.12;102086.72;4131283;28;20459;-67
2023/05/03 01:16:46;;;;;;;3.75;1.90;;;;;;;24.76;28.88;102081.31;4131044;28;20054;-67
2023/05/03 01:18:50;;;;;;;3.97;2.10;;;;;;;24.77;29.00;102084.91;4130230;28;20043;-67
2023/05/03 01:20:52;;;;;;;4.40;1.90;;;;;;;24.78;28.86;102081.25;4131092;28;20313;-67
2023/05/03 01:22:56;;;;;;;4.32;1.73;;;;;;;24.76;29.00;102073.25;4130413;28;20137;-68
2023/05/03 01:25:08;;;;;;;3.65;1.77;;;;;;;24.79;28.76;102083.81;4130313;28;20053;-68
2023/05/03 01:27:10;;;;;;;4.38;1.80;;;;;;;24.78;28.85;102089.31;4131143;28;20133;-67
2023/05/03 01:29:13;;;;;;;5.32;1.90;;;;;;;24.78;28.58;102084.78;4130068;28;20043;-67
2023/05/03 01:31:42;;;;;;;3.83;1.88;;;;;;;24.84;28.80;102087.00;4130964;28;20054;-67
2023/05/03 01:33:52;;;;;;;4.10;1.80;;;;;;;24.83;28.71;102089.81;4121050;28;20046;-67
2023/05/03 01:36:03;;;;;;;3.63;1.48;;;;;;;24.85;28.66;102104.03;4130602;28;20528;-68
2023/05/03 01:38:07;;;;;;;4.80;1.80;;;;;;;24.84;28.80;102091.53;4129330;28;20129;-68
2023/05/03 01:40:10;;;;;;;4.65;1.52;;;;;;;24.83;28.70;102089.81;4130639;28;20416;-68
2023/05/03 01:42:13;;;;;;;4.78;1.92;;;;;;;24.85;28.89;102104.03;4130702;28;20053;-68
2023/05/03 01:44:16;;;;;;;3.25;1.70;;;;;;;24.81;28.81;102083.69;4130761;28;20109;-68
2023/05/03 01:46:18;;;;;;;3.97;1.73;;;;;;;24.84;28.80;102091.53;4130688;28;20046;-68
2023/05/03 01:48:20;;;;;;;4.95;1.60;;;;;;;24.85;28.79;102091.41;4130072;28;20069;-68
2023/05/03 01:50:22;;;;;;;3.47;1.50;;;;;;;24.86;28.72;102094.94;4130915;28;20085;-67
2023/05/03 01:52:24;;;;;;;3.78;1.60;;;;;;;24.87;28.93;102104.75;4130937;28;20077;-68
2023/05/03 01:54:26;;;;;;;4.38;1.65;;;;;;;24.87;28.66;102099.38;4113493;28;20047;-68
2023/05/03 01:56:29;;;;;;;3.72;1.75;;;;;;;24.88;28.76;102106.47;4130794;28;20052;-68
2023/05/03 01:58:30;;;;;;;3.17;1.50;;;;;;;24.85;28.64;102095.94;4129801;28;20089;-68
2023/05/03 02:00:32;;;;;;;;;;;;;;;24.82;28.65;102094.31;4131112;28;20050;-66
2023/05/03 02:02:34;;;;;;;3.75;1.60;;;;;;;24.81;28.79;102103.41;4130688;28;19926;-68
2023/05/03 02:04:35;;;;;;;;;;;;;;;24.83;28.70;102097.88;4130786;28;20065;-65
2023/05/03 02:06:37;;;;;;;3.40;1.55;;;;;;;24.81;28.61;102111.47;4130498;28;19929;-68
2023/05/03 02:08:39;;;;;;;3.65;1.45;;;;;;;24.85;28.70;102099.50;4129803;28;20125;-67
2023/05/03 02:10:43;;;;;;;4.40;1.55;;;;;;;24.86;28.63;102103.91;4130464;28;20108;-68
2023/05/03 02:12:44;;;;;;;3.55;1.60;;;;;;;24.86;28.48;102108.41;4130496;28;20073;-66
2023/05/03 02:14:46;;;;;;;;;;;;;;;24.82;28.47;102097.00;4113626;28;20485;-66
2023/05/03 02:16:48;;;;;;;4.10;1.50;;;;;;;24.75;28.62;102090.38;4130726;28;20324;-67
2023/05/03 02:18:50;;;;;;;3.22;1.60;;;;;;;24.85;28.60;102098.66;4129525;28;20046;-66
2023/05/03 02:20:52;;;;;;;4.30;1.55;;;;;;;24.84;28.60;102094.22;4130162;28;20669;-66
2023/05/03 02:22:53;;;;;;;4.15;1.83;;;;;;;24.85;28.19;102095.94;4130397;28;20112;-66
2023/05/03 02:24:55;;;;;;;4.40;1.60;;;;;;;24.87;28.33;102096.69;4130640;28;20053;-66
2023/05/03 02:26:57;;;;;;;3.75;1.52;;;;;;;24.88;28.19;102088.47;4130519;28;20467;-66
2023/05/03 02:28:59;;;;;;;4.25;1.80;;;;;;;24.90;28.36;102096.47;4129587;28;20050;-65
2023/05/03 02:31:01;;;;;;;4.10;1.50;;;;;;;24.88;28.18;102099.25;4130549;28;20050;-66
2023/05/03 02:33:02;;;;;;;4.20;1.60;;;;;;;24.88;28.16;102107.31;4130541;28;20514;-66
2023/05/03 02:35:05;;;;;;;;;;;;;;;24.86;28.21;102100.34;4130548;28;20050;-66
2023/05/03 02:37:07;;;;;;;3.63;1.70;;;;;;;24.84;28.48;102091.53;4131297;28;19929;-66
2023/05/03 02:39:09;;;;;;;3.78;1.60;;;;;;;24.88;28.29;102093.00;4132468;28;20046;-66
2023/05/03 02:41:11;;;;;;;4.18;1.70;;;;;;;24.85;28.46;102090.56;4116000;28;20110;-66
2023/05/03 02:43:12;;;;;;;;;;;;;;;24.84;28.11;102091.53;4133966;28;20419;-66
2023/05/03 02:45:14;;;;;;;3.13;1.50;;;;;;;24.81;28.24;102095.31;4133241;28;20048;-66
2023/05/03 02:47:15;;;;;;;;;;;;;;;24.81;28.17;102089.94;4134038;28;20051;-66
2023/05/03 02:49:17;;;;;;;4.43;1.73;;;;;;;24.82;28.41;102093.47;4131874;28;19921;-65
2023/05/03 02:51:19;;;;;;;3.55;1.67;;;;;;;24.80;28.30;102087.34;4133236;28;20480;-66
2023/05/03 02:53:21;;;;;;;4.28;1.77;;;;;;;24.89;28.29;102102.81;4133203;28;20084;-66
2023/05/03 02:55:22;;;;;;;4.88;1.65;;;;;;;24.91;28.16;102100.00;4133066;28;20100;-66
2023/05/03 02:57:24;;;;;;;3.85;1.58;;;;;;;24.90;28.21;102099.16;4133165;28;20054;-66
2023/05/03 02:59:26;;;;;;;3.30;1.63;;;;;;;24.90;28.14;102088.38;4132278;28;20101;-66
2023/05/03 03:01:28;;;;;;;3.70;1.55;;;;;;;24.93;28.27;102098.91;4133123;28;20046;-67
2023/05/03 03:03:30;;;;;;;3.65;1.60;;;;;;;24.89;28.18;102083.97;4132948;28;20051;-66
2023/05/03 03:05:32;;;;;;;;;;;;;;;24.88;28.25;102090.31;4133363;28;20121;-66
2023/05/03 03:07:37;;;;;;;4.13;1.50;;;;;;;24.86;28.16;102086.88;4131775;28;19928;-68
2023/05/03 03:09:39;;;;;;;4.45;1.60;;;;;;;24.89;28.29;102086.66;4132023;28;20050;-66
2023/05/03 03:11:41;;;;;;;2.42;1.40;;;;;;;24.91;27.91;102086.53;4133158;28;20051;-66
2023/05/03 03:13:42;;;;;;;;;;;;;;;24.88;27.86;102082.25;4133230;28;20508;-66
2023/05/03 03:15:44;;;;;;;4.65;1.70;;;;;;;24.85;28.38;102082.50;4115315;28;19922;-68
2023/05/03 03:17:46;;;;;;;3.83;1.52;;;;;;;24.88;28.27;102072.34;4132748;28;20125;-65
2023/05/03 03:19:48;;;;;;;4.47;1.75;;;;;;;24.88;28.03;102066.94;4131876;28;20050;-68
2023/05/03 03:21:50;;;;;;;;;;;;;;;24.88;27.71;102069.63;4132939;28;20046;-66
2023/05/03 03:23:52;;;;;;;4.53;1.80;;;;;;;24.84;28.24;102059.25;4132898;28;19925;-68
2023/05/03 03:25:54;;;;;;;3.47;1.50;;;;;;;24.86;28.00;102059.97;4132626;28;20073;-68
2023/05/03 03:27:55;;;;;;;3.83;1.58;;;;;;;24.91;28.03;102062.31;4132820;28;20061;-68
2023/05/03 03:29:57;;;;;;;;;;;;;;;24.87;27.69;102059.00;4132083;28;20125;-64
2023/05/03 03:31:59;;;;;;;4.32;1.73;;;;;;;24.84;27.84;102057.41;4132230;28;19936;-68
2023/05/03 03:34:00;;;;;;;3.63;1.63;;;;;;;24.87;27.93;102051.81;4132633;28;20046;-67
2023/05/03 03:36:02;;;;;;;;;;;;;;;24.83;27.82;102044.06;4133174;28;20153;-65
2023/05/03 03:38:04;;;;;;;4.47;1.60;;;;;;;24.81;27.81;102046.88;4132558;28;19929;-67
2023/05/03 03:40:06;;;;;;;3.22;1.50;;;;;;;24.86;27.70;102050.09;4131456;28;20432;-68
2023/05/03 03:42:11;;;;;;;4.50;1.80;;;;;;;24.88;27.77;102045.41;4132627;28;20104;-68
2023/05/03 03:44:13;;;;;;;3.05;1.40;;;;;;;24.86;27.86;102050.09;4132522;28;20046;-67
2023/05/03 03:46:16;;;;;;;4.45;1.55;;;;;;;24.88;27.80;102055.34;4132375;28;20051;-67
2023/05/03 03:48:17;;;;;;;5.18;1.80;;;;;;;24.88;27.55;102049.97;4131215;28;20046;-68
2023/05/03 03:50:19;;;;;;;;;;;;;;;24.88;27.70;102053.50;4132333;28;20050;-65
2023/05/03 03:52:21;;;;;;;5.15;1.73;;;;;;;24.82;27.82;102050.44;4115297;28;20312;-68
2023/05/03 03:54:23;;;;;;;;;;;;;;;24.84;27.83;102052.03;4132874;28;20093;-65
2023/05/03 03:56:25;;;;;;;5.45;1.80;;;;;;;24.81;27.87;102048.69;4132140;28;19922;-67
2023/05/03 03:58:26;;;;;;;3.45;1.55;;;;;;;24.84;27.66;102052.03;4131524;28;20050;-67
2023/05/03 04:00:28;;;;;;;;;;;;;;;24.82;27.79;102047.72;4132478;28;20078;-65
2023/05/03 04:02:30;;;;;;;3.42;1.70;;;;;;;24.81;27.97;102048.69;4131948;28;19937;-67
2023/05/03 04:04:32;;;;;;;4.25;1.63;;;;;;;24.83;27.58;102044.91;4132048;28;20129;-67
2023/05/03 04:06:34;;;;;;;;;;;;;;;24.82;27.64;102053.97;4115292;28;20074;-65
2023/05/03 04:08:36;;;;;;;3.03;1.40;;;;;;;24.80;27.68;102049.66;4131347;28;20298;-68
2023/05/03 04:10:37;;;;;;;4.97;2.00;;;;;;;24.83;27.62;102057.53;4131928;28;20120;-68
2023/05/03 04:12:39;;;;;;;3.00;1.20;;;;;;;24.86;27.80;102054.59;4132131;28;20072;-68
2023/05/03 04:14:40;;;;;;;2.55;1.23;;;;;;;24.75;27.67;102041.94;4132037;28;20054;-67
2023/05/03 04:16:42;;;;;;;4.80;1.95;;;;;;;24.85;27.47;102058.28;4131614;28;20057;-67
2023/05/03 04:18:44;;;;;;;3.47;1.40;;;;;;;24.87;27.49;102056.31;4131136;28;20074;-67
2023/05/03 04:20:45;;;;;;;;;;;;;;;24.84;27.63;102056.56;4132116;28;20484;-65
2023/05/03 04:22:47;;;;;;;4.10;1.40;;;;;;;24.77;27.79;102048.06;4131661;28;19921;-67
2023/05/03 04:24:49;;;;;;;;;;;;;;;24.80;27.56;102049.66;4115026;28;20102;-65
2023/05/03 04:26:51;;;;;;;3.63;1.50;;;;;;;24.78;27.95;102057.03;4131862;28;20383;-68
2023/05/03 04:28:53;;;;;;;6.05;1.50;;;;;;;24.82;27.60;102055.81;4130764;28;20050;-67
2023/05/03 04:30:57;;;;;;;4.32;1.73;;;;;;;24.83;27.51;102049.47;4131321;28;20121;-67
2023/05/03 04:33:00;;;;;;;3.53;1.55;;;;;;;24.85;27.70;102052.91;4131822;28;20104;-67
2023/05/03 04:35:11;;;;;;;3.00;1.23;;;;;;;24.84;27.47;102041.25;4131794;28;20046;-66
2023/05/03 04:37:14;;;;;;;3.45;1.58;;;;;;;24.85;27.80;102051.06;4130485;28;20051;-67
2023/05/03 04:39:15;;;;;;;4.18;1.52;;;;;;;24.86;27.51;102046.50;4130553;28;20053;-67
2023/05/03 04:41:17;;;;;;;4.47;1.60;;;;;;;24.80;27.47;102039.78;4131320;28;20141;-67
2023/05/03 04:43:19;;;;;;;;;;;;;;;24.83;27.50;102049.47;4132115;28;20097;-64
2023/05/03 04:45:20;;;;;;;4.60;1.80;;;;;;;24.79;27.58;102040.75;4131071;28;19922;-67
2023/05/03 04:47:23;;;;;;;4.45;1.83;;;;;;;24.81;27.71;102052.28;4114355;28;20192;-67
2023/05/03 04:49:25;;;;;;;3.47;1.42;;;;;;;24.86;27.39;102057.28;4130348;28;20046;-68
2023/05/03 04:51:27;;;;;;;4.28;1.80;;;;;;;24.86;27.47;102055.47;4131574;28;20073;-67
2023/05/03 04:53:28;;;;;;;4.65;1.80;;;;;;;24.88;27.22;102060.72;4131507;28;20077;-68
2023/05/03 04:55:30;;;;;;;3.92;1.50;;;;;;;24.87;27.44;102062.56;4131397;28;20176;-67
2023/05/03 04:57:33;;;;;;;4.45;1.80;;;;;;;24.85;27.57;102058.28;4131318;28;20101;-68
2023/05/03 04:59:35;;;;;;;4.63;1.70;;;;;;;24.83;27.39;102058.38;4129466;28;20478;-68
2023/05/03 05:01:36;;;;;;;4.57;1.75;;;;;;;24.83;27.41;102057.53;4131313;28;20467;-65
2023/05/03 05:03:38;;;;;;;4.50;1.65;;;;;;;24.81;27.17;102048.69;4131467;28;20097;-65
2023/05/03 05:05:40;;;;;;;6.88;1.92;;;;;;;24.81;27.48;102051.41;4131344;28;20129;-68
2023/05/03 05:07:42;;;;;;;;;;;;;;;24.77;27.37;102056.16;4131348;28;20050;-65
2023/05/03 05:09:43;;;;;;;5.30;1.73;;;;;;;24.74;27.37;102052.81;4130142;28;19921;-67
2023/05/03 05:11:45;;;;;;;;;;;;;;;24.75;27.43;102054.53;4131707;28;20161;-65
2023/05/03 05:13:47;;;;;;;4.90;1.90;;;;;;;24.74;27.67;102059.09;4130915;28;20020;-66
2023/05/03 05:15:48;;;;;;;;;;;;;;;24.74;27.27;102068.97;4131338;28;20046;-64
2023/05/03 05:17:50;;;;;;;4.45;1.70;;;;;;;24.69;27.80;102063.94;4131225;28;19922;-66
2023/05/03 05:19:52;;;;;;;6.03;1.92;;;;;;;24.73;27.39;102060.06;4130122;28;20245;-67
2023/05/03 05:21:55;;;;;;;6.00;2.05;;;;;;;24.71;27.24;102046.69;4130969;28;20088;-66
2023/05/03 05:23:56;;;;;;;4.70;1.80;;;;;;;24.77;27.50;102058.00;4131076;28;20047;-67
2023/05/03 05:25:59;;;;;;;5.80;1.90;;;;;;;24.76;27.30;102053.56;4130726;28;20046;-66
2023/05/03 05:28:01;;;;;;;5.45;1.83;;;;;;;24.77;27.36;102055.31;4130557;28;20046;-67
2023/05/03 05:30:03;;;;;;;4.50;1.80;;;;;;;24.78;27.19;102052.50;4129997;28;20129;-67
2023/05/03 05:32:05;;;;;;;4.03;1.60;;;;;;;24.78;27.70;102057.88;4113673;28;20549;-67
2023/05/03 05:34:07;;;;;;;4.25;1.75;;;;;;;24.79;27.29;102058.72;4113772;28;20070;-67
2023/05/03 05:36:09;;;;;;;;;;;;;;;24.76;27.27;102056.28;4131353;28;20070;-65
2023/05/03 05:38:11;;;;;;;4.07;1.70;;;;;;;24.71;27.38;102046.69;4130894;28;20376;-67
2023/05/03 05:40:13;;;;;;;4.18;1.73;;;;;;;24.75;27.31;102052.69;4112727;28;20050;-67
2023/05/03 05:42:14;;;;;;;4.57;1.70;;;;;;;24.77;27.36;102055.31;4131087;28;20065;-67
2023/05/03 05:44:16;;;;;;;5.28;1.90;;;;;;;24.78;27.23;102067.78;4130292;28;20073;-67
2023/05/03 05:46:20;;;;;;;4.47;1.98;;;;;;;24.80;27.26;102065.81;4130733;28;20047;-67
2023/05/03 05:48:22;;;;;;;4.95;1.63;;;;;;;24.79;27.38;102069.47;4130672;28;20046;-67
2023/05/03 05:50:23;;;;;;;6.47;2.45;;;;;;;24.79;27.19;102064.97;4129643;28;20125;-66
2023/05/03 05:52:25;;;;;;;4.63;2.05;;;;;;;24.78;27.14;102065.94;4113566;28;20098;-66
2023/05/03 05:54:27;;;;;;;4.63;1.92;;;;;;;24.78;27.16;102065.09;4130676;28;20058;-67
2023/05/03 05:56:30;;;;;;;6.35;1.95;;;;;;;24.80;26.75;102064.00;4131092;28;20461;-67
2023/05/03 05:58:32;;;;;;;4.47;1.83;;;;;;;24.80;27.26;102068.50;4130450;28;20396;-67
2023/05/03 06:00:34;;;;;;;7.10;2.22;;;;;;;24.80;27.36;102065.81;4129562;28;20070;-66
2023/05/03 06:02:36;;;;;;;5.50;1.90;;;;;;;24.81;27.04;102067.53;4130861;28;20050;-67
2023/05/03 06:04:38;;;;;;;4.90;1.90;;;;;;;24.76;27.38;102061.66;4130587;28;20491;-67
2023/05/03 06:06:40;;;;;;;4.68;1.65;;;;;;;24.76;27.03;102067.88;4130663;28;20050;-66
2023/05/03 06:08:41;;;;;;;5.57;1.92;;;;;;;24.81;26.83;102072.91;4130418;28;20538;-67
2023/05/03 06:10:43;;;;;;;5.57;2.15;;;;;;;24.80;26.92;102071.19;4130196;28;20046;-66
2023/05/03 06:12:44;;;;;;;4.85;1.60;;;;;;;24.81;27.28;102072.91;4133669;28;20492;-66
2023/05/03 06:14:46;;;;;;;4.50;1.83;;;;;;;24.81;27.17;102075.63;4133913;28;20500;-66
2023/05/03 06:17:02;;;;;;;5.25;1.95;;;;;;;24.81;26.77;102071.09;4133720;28;20085;-66
2023/05/03 06:19:04;;;;;;;4.10;1.63;;;;;;;24.81;27.51;102075.63;4132929;28;20097;-68
2023/05/03 06:21:06;;;;;;;5.25;2.10;;;;;;;24.82;27.03;102064.72;4133280;28;20050;-66
2023/05/03 06:23:07;;;;;;;4.82;1.70;;;;;;;24.82;27.05;102069.25;4133497;28;20085;-67
2023/05/03 06:25:13;;;;;;;;;;;;;;;24.80;27.00;102065.81;4134175;28;20441;-65
2023/05/03 06:27:18;;;;;;;5.20;1.70;;;;;;;24.77;27.53;102058.84;4133440;28;19922;-67
2023/05/03 06:29:20;;;;;;;5.07;1.70;;;;;;;24.80;27.25;102055.94;4132706;28;20046;-67
2023/05/03 06:31:21;;;;;;;5.03;1.90;;;;;;;24.82;27.27;102064.72;4133551;28;20058;-67
2023/05/03 06:33:23;;;;;;;5.45;1.92;;;;;;;24.78;27.22;102063.25;4132718;28;20124;-67
2023/05/03 06:35:25;;;;;;;4.95;2.00;;;;;;;24.73;27.48;102057.34;4133530;28;20133;-66
2023/05/03 06:37:26;;;;;;;6.65;2.00;;;;;;;24.71;27.78;102053.91;4133477;28;20069;-67
2023/05/03 06:39:28;;;;;;;6.93;1.90;;;;;;;24.70;27.46;102053.06;4132428;28;20488;-67
2023/05/03 06:41:31;;;;;;;7.72;1.90;;;;;;;24.67;27.35;102050.59;4132965;28;20492;-67
2023/05/03 06:43:33;;;;;;;7.00;1.92;;;;;;;24.68;27.43;102055.00;4133356;28;20555;-66
2023/05/03 06:45:34;;;;;;;4.05;1.63;;;;;;;24.66;27.52;102056.94;4133097;28;20128;-67
2023/05/03 06:47:38;;;;;;;4.60;1.65;;;;;;;24.61;27.46;102055.56;4133352;28;20050;-66
2023/05/03 06:49:40;;;;;;;4.95;1.70;;;;;;;24.59;27.88;102052.97;4132102;28;20046;-67
2023/05/03 06:51:42;;;;;;;;;;;;;;;24.58;27.79;102059.31;4133603;28;20137;-67
2023/05/03 06:53:45;;;;;;;7.88;2.17;;;;;;;24.54;27.97;102060.53;4133020;28;20020;-67
2023/05/03 06:55:46;;;;;;;6.50;1.80;;;;;;;24.58;27.76;102062.00;4131549;28;20042;-67
2023/05/03 06:57:48;;;;;;;6.47;1.90;;;;;;;24.60;27.29;102062.75;4133111;28;20050;-67
2023/05/03 06:59:49;;;;;;;5.97;2.17;;;;;;;24.60;27.68;102059.22;4114815;28;20055;-67
2023/05/03 07:01:51;;;;;;;4.20;1.70;;;;;;;24.60;27.68;102052.00;4119432;28;20043;-67
2023/05/03 07:03:53;;;;;;;4.55;1.73;;;;;;;24.59;27.86;102054.81;4108489;28;20043;-66
2023/05/03 07:05:55;;;;;;;7.50;2.08;;;;;;;24.58;27.71;102048.53;4125110;28;20055;-67
2023/05/03 07:07:56;;;;;;;14.88;2.40;;;;;;;24.56;27.75;102040.59;4120613;28;20102;-66
2023/05/03 07:09:58;;;;;;;;;;;;;;;24.54;27.60;102042.53;4115950;28;20492;-64
2023/05/03 07:12:00;;;;;;;9.88;2.33;;;;;;;24.52;27.73;102041.81;4121210;28;19921;-66
2023/05/03 07:14:01;;;;;;;12.48;2.90;;;;;;;24.54;27.75;102042.53;4132951;28;20112;-66
2023/05/03 07:16:04;;;;;;;15.80;3.20;;;;;;;24.55;28.01;102046.09;4116927;28;20051;-67
2023/05/03 07:18:08;;;;;;;9.25;2.40;;;;;;;24.57;27.67;102038.78;4099634;28;20055;-66
2023/05/03 07:20:10;;;;;;;8.55;2.50;;;;;;;24.57;27.83;102038.78;4109296;28;20110;-66
2023/05/03 07:22:12;;;;;;;9.80;2.63;;;;;;;24.54;27.76;102039.00;4126725;28;20452;-66
2023/05/03 07:24:14;;;;;;;9.38;2.35;;;;;;;24.57;27.60;102033.41;4102964;28;20432;-66
2023/05/03 07:26:15;;;;;;;;;;;;;;;24.54;27.46;102037.16;4111538;28;20047;-64
2023/05/03 07:28:17;;;;;;;7.03;2.42;;;;;;;24.50;27.52;102033.00;4116745;28;20379;-68
2023/05/03 07:30:19;;;;;;;7.60;2.50;;;;;;;24.57;27.67;102036.09;4115481;28;20050;-69
2023/05/03 07:32:21;;;;;;;7.68;2.35;;;;;;;24.55;27.83;102028.13;4116449;28;20047;-67
2023/05/03 07:34:22;;;;;;;8.35;2.38;;;;;;;24.58;27.55;102024.34;4116477;28;20555;-69
2023/05/03 07:36:25;;;;;;;8.88;2.28;;;;;;;24.59;27.59;102020.69;4116488;28;20146;-69
2023/05/03 07:38:26;;;;;;;;;;;;;;;24.53;27.50;102015.75;4116811;28;20051;-66
2023/05/03 07:40:31;;;;;;;8.27;2.35;;;;;;;24.52;27.81;102019.41;4109212;28;20387;-69
2023/05/03 07:42:33;;;;;;;5.93;1.90;;;;;;;24.54;27.51;102014.78;4100227;29;20043;-69
2023/05/03 07:44:34;;;;;;;7.70;2.17;;;;;;;24.54;27.49;102012.94;4100257;29;20062;-70
2023/05/03 07:46:36;;;;;;;;;;;;;;;24.58;27.56;102010.03;4100862;29;20133;-67
2023/05/03 07:48:37;;;;;;;6.78;2.25;;;;;;;24.54;27.48;102009.41;4100561;29;19977;-69
2023/05/03 07:50:43;;;;;;;5.63;2.03;;;;;;;24.56;27.53;102002.09;4099177;29;20044;-69
2023/05/03 07:52:44;;;;;;;6.70;2.05;;;;;;;24.57;27.68;102003.81;4100244;29;20103;-69
2023/05/03 07:54:46;;;;;;;;;;;;;;;24.56;27.72;101994.03;4100250;29;20428;-67
2023/05/03 07:56:48;;;;;;;7.22;2.35;;;;;;;24.54;27.57;101999.50;4100352;29;19923;-70
2023/05/03 07:58:49;;;;;;;9.43;2.40;;;;;;;24.58;27.88;101994.75;4100082;29;20122;-69
2023/05/03 08:01:05;;;;;;;8.25;2.45;;;;;;;24.61;27.55;101991.84;4099035;29;20047;-69
2023/05/03 08:03:07;;;;;;;6.82;2.10;;;;;;;24.61;27.79;101989.16;4100149;29;20070;-69
2023/05/03 08:05:12;;;;;;;5.78;2.10;;;;;;;24.64;27.69;101988.94;4100108;29;20497;-68
2023/05/03 08:07:14;;;;;;;6.07;2.00;;;;;;;24.63;27.77;101986.34;4098039;29;20058;-67
2023/05/03 08:09:16;;;;;;;6.53;1.77;;;;;;;24.64;27.79;101985.38;4081982;29;20115;-67
2023/05/03 08:11:18;;;;;;;6.47;2.13;;;;;;;24.63;27.70;101986.34;4095246;28;20378;-67
2023/05/03 08:13:21;;;;;;;7.72;2.15;;;;;;;24.46;27.72;101983.09;4099763;29;20110;-66
2023/05/03 08:15:23;;;;;;;8.43;2.63;;;;;;;24.39;28.22;101982.69;4096154;28;20053;-69
2023/05/03 08:17:25;;;;;;;7.88;2.67;;;;;;;24.33;28.16;101988.53;4106895;28;20070;-65
2023/05/03 08:19:26;;;;;;;8.07;3.28;;;;;;;24.24;28.30;101986.50;4107254;28;20090;-66
2023/05/03 08:21:29;;;;;;;8.48;2.95;;;;;;;24.19;28.29;101981.50;4091830;29;20087;-69
2023/05/03 08:23:30;;;;;;;7.40;2.80;;;;;;;24.19;28.16;101976.13;4118392;28;20063;-66
2023/05/03 08:25:33;;;;;;;;;;;;;;;24.15;28.32;101976.47;4125483;28;20220;-67
2023/05/03 08:27:35;;;;;;;;;;;;;;;24.03;28.33;101975.53;4123919;28;19933;-71
2023/05/03 08:29:37;;;;;;;7.53;3.10;;;;;;;23.95;28.33;101977.91;4118205;28;19929;-64
2023/05/03 08:31:39;;;;;;;7.65;3.28;;;;;;;23.95;28.60;101970.72;4115252;28;20047;-64
2023/05/03 08:33:42;;;;;;;8.52;3.05;;;;;;;23.98;28.22;101965.09;4121065;28;20057;-69
2023/05/03 08:35:44;;;;;;;6.43;2.80;;;;;;;23.96;28.35;101966.19;4112327;28;20042;-68
2023/05/03 08:37:48;;;;;;;9.60;3.30;;;;;;;23.85;28.26;101958.88;4110877;28;20110;-66
2023/05/03 08:39:51;;;;;;;7.47;3.30;;;;;;;23.74;28.53;101965.00;4117618;28;20042;-69
2023/05/03 08:41:53;;;;;;;12.27;3.75;;;;;;;23.72;28.65;101959.75;4128664;28;20045;-74
2023/05/03 08:43:56;;;;;;;10.65;3.88;;;;;;;23.70;28.54;101959.00;4107610;28;20518;-73
2023/05/03 08:45:58;;;;;;;11.07;3.90;;;;;;;23.64;28.76;101958.59;4120014;28;20115;-68
2023/05/03 08:48:02;;;;;;;12.45;3.97;;;;;;;23.61;28.62;101957.00;4122550;28;20046;-68
2023/05/03 08:50:04;;;;;;;8.65;3.45;;;;;;;23.60;28.33;101961.50;4121452;28;20047;-69
2023/05/03 08:52:10;;;;;;;14.45;4.10;;;;;;;23.41;28.79;101944.97;4119363;28;20489;-68
2023/05/03 08:54:20;;;;;;;8.80;4.10;;;;;;;23.35;28.63;101954.31;4122307;28;20038;-67
2023/05/03 08:56:38;;;;;;;12.52;3.78;;;;;;;23.39;28.88;101957.63;4120983;28;20133;-70
2023/05/03 08:58:39;;;;;;;10.43;3.72;;;;;;;23.28;29.02;101953.91;4108777;28;20055;-67
2023/05/03 09:00:43;;;;;;;9.85;3.58;;;;;;;23.32;28.90;101951.84;4107668;28;20043;-69
2023/05/03 09:02:46;;;;;;;9.52;3.70;;;;;;;23.28;28.85;101951.22;4123845;28;20053;-71
2023/05/03 09:04:47;;;;;;;9.50;4.00;;;;;;;23.25;29.28;101956.78;4124348;28;20046;-68
2023/05/03 09:06:49;;;;;;;7.13;3.33;;;;;;;23.18;28.87;101957.34;4125373;28;20121;-73
2023/05/03 09:08:52;;;;;;;9.32;3.58;;;;;;;23.06;28.91;101949.16;4124927;28;20042;-69
2023/05/03 09:10:54;;;;;;;9.55;3.00;;;;;;;22.98;29.35;101951.50;4115546;28;20137;-73
2023/05/03 09:13:00;;;;;;;;;;;;;;;22.88;28.89;101959.31;4119696;28;20500;-73
2023/05/03 09:15:02;;;;;;;9.57;3.60;;;;;;;22.84;29.09;101948.88;4101475;28;19922;-73
2023/05/03 09:17:20;;;;;;;10.02;3.78;;;;;;;22.86;29.41;101941.59;4119991;28;20051;-70
2023/05/03 09:19:23;;;;;;;10.57;3.92;;;;;;;22.81;29.68;101941.91;4120547;28;20039;-71
2023/05/03 09:21:25;;;;;;;8.38;3.08;;;;;;;22.75;29.70;101940.50;4119377;28;20046;-70
2023/05/03 09:23:27;;;;;;;8.93;3.15;;;;;;;22.81;29.52;101937.41;4121763;28;20428;-71
2023/05/03 09:25:46;;;;;;;13.05;3.30;;;;;;;22.85;29.44;101939.88;4121830;28;20046;-73
2023/05/03 09:28:00;;;;;;;6.88;3.05;;;;;;;22.86;29.75;101944.28;4121989;28;20066;-74
2023/05/03 09:30:17;;;;;;;7.15;3.05;;;;;;;22.92;29.23;101941.19;4103608;28;20051;-70
2023/05/03 09:32:20;;;;;;;8.13;3.38;;;;;;;22.87;29.48;101930.75;4119653;28;20384;-71
2023/05/03 09:34:22;;;;;;;8.98;3.30;;;;;;;22.90;29.07;101938.59;4097641;28;20058;-69
2023/05/03 09:36:26;;;;;;;7.85;3.53;;;;;;;22.83;29.36;101944.50;4114652;28;20043;-72
2023/05/03 09:38:30;;;;;;;7.70;3.30;;;;;;;22.76;29.47;101936.84;4112140;28;20485;-66